Time;durP1;ratioP1;P1;durP2;ratioP2;P2;SDS_P1;SDS_P2;PMS_P1;PMS_P2;Temp;Humidity;BMP_temperature;BMP_pressure;BME280_temperature;BME280_humidity;BME280_pressure;Samples;Min_cycle;Max_cycle;Signal;HPM_P1;HPM_P2
2023/08/15 00:00:13;;;;;;;9.60;3.08;;;;;;;18.83;100.00;101253.72;5279468;28;20495;-71
2023/08/15 00:02:43;;;;;;;23.30;4.28;;;;;;;18.77;100.00;101251.81;5264189;28;20031;-71
2023/08/15 00:05:14;;;;;;;14.23;3.55;;;;;;;18.76;100.00;101254.75;5277190;28;20476;-71
2023/08/15 00:07:44;;;;;;;19.45;4.30;;;;;;;18.78;100.00;101258.94;5266369;28;20102;-71
2023/08/15 00:10:15;;;;;;;10.02;3.58;;;;;;;18.82;100.00;101262.06;5284866;28;20050;-71
2023/08/15 00:12:46;;;;;;;13.85;3.75;;;;;;;18.79;100.00;101257.06;5250548;28;20089;-71
2023/08/15 00:15:17;;;;;;;15.40;4.05;;;;;;;18.76;100.00;101254.75;5273600;28;20110;-71
2023/08/15 00:17:48;;;;;;;8.43;3.17;;;;;;;18.73;100.00;101258.75;5284391;28;20027;-71
2023/08/15 00:20:19;;;;;;;15.30;3.67;;;;;;;18.71;100.00;101254.53;5284981;28;20023;-71
2023/08/15 00:22:49;;;;;;;15.65;3.97;;;;;;;18.65;100.00;101258.91;5284785;28;20431;-71
2023/08/15 00:25:20;;;;;;;9.45;3.25;;;;;;;18.54;100.00;101267.69;5272562;28;20064;-71
2023/08/15 00:27:50;;;;;;;9.68;4.18;;;;;;;18.42;100.00;101269.34;5272168;28;20072;-71
2023/08/15 00:30:21;;;;;;;16.88;3.30;;;;;;;18.31;100.00;101273.50;5289371;28;20023;-71
2023/08/15 00:32:51;;;;;;;14.45;3.75;;;;;;;18.19;100.00;101276.00;5275286;28;20055;-71
2023/08/15 00:35:22;;;;;;;14.02;3.25;;;;;;;18.14;100.00;101272.25;5273332;28;20039;-71
2023/08/15 00:37:52;;;;;;;14.43;3.83;;;;;;;18.15;100.00;101280.16;5275785;28;20035;-71
2023/08/15 00:40:23;;;;;;;13.88;3.47;;;;;;;18.18;100.00;101292.50;5274843;28;20016;-71
2023/08/15 00:42:54;;;;;;;15.23;3.90;;;;;;;18.22;100.00;101282.88;5279200;28;20254;-71
2023/08/15 00:45:25;;;;;;;14.93;4.22;;;;;;;18.28;100.00;101280.22;5280862;28;20016;-71
2023/08/15 00:47:56;;;;;;;13.80;3.63;;;;;;;18.34;100.00;101273.09;5278174;28;20435;-71
2023/08/15 00:50:27;;;;;;;12.32;3.30;;;;;;;18.40;100.00;101266.00;5284229;28;20028;-71
2023/08/15 00:53:00;;;;;;;15.70;4.00;;;;;;;18.42;100.00;101258.47;5280401;28;20023;-71
2023/08/15 00:55:32;;;;;;;15.02;3.53;;;;;;;18.41;100.00;101257.63;5274459;28;20024;-71
2023/08/15 00:58:03;;;;;;;16.17;4.38;;;;;;;18.36;100.00;101265.56;5286848;28;20027;-71
2023/08/15 01:00:34;;;;;;;15.05;3.72;;;;;;;18.29;100.00;101275.59;5267869;28;20209;-71
2023/08/15 01:03:04;;;;;;;10.57;3.35;;;;;;;18.23;100.00;101276.44;5281389;28;20058;-71
2023/08/15 01:05:38;;;;;;;17.20;4.65;;;;;;;18.14;100.00;101283.09;5268514;28;20024;-71
2023/08/15 01:08:09;;;;;;;13.15;3.60;;;;;;;18.01;100.00;101276.59;5276649;28;20031;-71
2023/08/15 01:10:40;;;;;;;13.07;3.55;;;;;;;17.98;100.00;101284.31;5282153;28;20020;-71
2023/08/15 01:13:35;;;;;;;12.13;3.60;;;;;;;17.94;100.00;101286.59;5273321;28;20347;-71
2023/08/15 01:16:11;;;;;;;13.30;4.07;;;;;;;17.94;100.00;101283.88;5295821;27;20488;-70
2023/08/15 01:18:47;;;;;;;12.05;3.55;;;;;;;17.95;100.00;101282.00;5288461;28;20019;-70
2023/08/15 01:21:24;;;;;;;15.02;3.53;;;;;;;17.94;100.00;101291.19;5287790;28;20030;-71
2023/08/15 01:23:56;;;;;;;15.68;3.65;;;;;;;17.97;100.00;101293.47;5288063;28;20032;-71
2023/08/15 01:26:27;;;;;;;12.48;3.30;;;;;;;17.99;100.00;101294.13;5288362;28;20020;-71
2023/08/15 01:29:00;;;;;;;14.15;4.00;;;;;;;18.00;100.00;101291.19;5274592;28;20055;-70
2023/08/15 01:31:36;;;;;;;13.73;3.20;;;;;;;17.99;100.00;101302.28;5288177;28;20364;-71
2023/08/15 01:34:21;;;;;;;20.05;4.18;;;;;;;17.98;100.00;101308.75;5274181;28;20110;-71
2023/08/15 01:36:57;;;;;;;17.92;4.10;;;;;;;17.96;100.00;101318.97;5287904;28;20024;-71
2023/08/15 01:39:29;;;;;;;8.88;3.30;;;;;;;17.93;100.00;101327.53;5287615;28;20027;-70
2023/08/15 01:42:01;;;;;;;11.50;3.20;;;;;;;17.92;100.00;101329.38;5274287;28;20032;-71
2023/08/15 01:44:34;;;;;;;11.85;3.55;;;;;;;17.95;100.00;101333.56;5287941;28;20031;-71
2023/08/15 01:47:04;;;;;;;12.40;3.63;;;;;;;17.95;100.00;101328.16;5287580;28;20126;-71
2023/08/15 01:49:35;;;;;;;9.52;3.20;;;;;;;17.95;100.00;101325.44;5288155;28;20114;-71
2023/08/15 01:52:05;;;;;;;13.13;3.70;;;;;;;17.96;100.00;101322.50;5287174;28;20020;-70
2023/08/15 01:54:36;;;;;;;16.42;4.20;;;;;;;17.96;100.00;101314.34;5286395;28;20023;-71
2023/08/15 01:57:07;;;;;;;14.57;4.00;;;;;;;18.03;100.00;101317.13;5279339;28;20078;-70
2023/08/15 01:59:37;;;;;;;19.92;4.35;;;;;;;18.08;100.00;101312.75;5280700;28;20510;-70
2023/08/15 02:02:10;;;;;;;19.67;4.18;;;;;;;18.14;100.00;101311.09;5267657;28;20031;-71
2023/08/15 02:04:41;;;;;;;13.52;3.70;;;;;;;18.22;100.00;101313.59;5267965;28;20043;-71
2023/08/15 02:07:12;;;;;;;18.77;4.25;;;;;;;18.26;100.00;101314.88;5266787;28;20008;-71
2023/08/15 02:09:42;;;;;;;20.02;4.78;;;;;;;18.30;100.00;101316.13;5282475;28;20127;-70
2023/08/15 02:12:15;;;;;;;12.43;4.15;;;;;;;18.32;100.00;101314.06;5287754;28;20024;-70
2023/08/15 02:14:46;;;;;;;20.23;4.20;;;;;;;18.31;100.00;101312.38;5287683;28;20058;-71
2023/08/15 02:17:16;;;;;;;15.13;3.63;;;;;;;18.29;100.00;101308.19;5286942;28;20028;-71
2023/08/15 02:19:48;;;;;;;15.43;4.25;;;;;;;18.26;100.00;101314.03;5273084;28;20031;-71
2023/08/15 02:22:18;;;;;;;18.98;4.05;;;;;;;18.18;100.00;101325.94;5287109;28;20378;-71
2023/08/15 02:24:49;;;;;;;13.82;4.53;;;;;;;18.14;100.00;101326.53;5287637;28;20495;-71
2023/08/15 02:27:20;;;;;;;15.73;4.10;;;;;;;18.07;100.00;101337.38;5287576;28;20015;-70
2023/08/15 02:29:51;;;;;;;12.00;4.07;;;;;;;18.04;100.00;101337.78;5288278;28;20051;-71
2023/08/15 02:32:22;;;;;;;12.73;3.80;;;;;;;18.00;100.00;101331.91;5284236;28;20075;-70
2023/08/15 02:34:53;;;;;;;21.00;4.28;;;;;;;18.02;100.00;101338.00;5260047;28;20019;-71
2023/08/15 02:37:24;;;;;;;15.45;4.30;;;;;;;18.08;100.00;101336.34;5273160;28;20024;-71
2023/08/15 02:39:54;;;;;;;18.13;4.88;;;;;;;18.13;100.00;101333.03;5288060;28;20095;-70
2023/08/15 02:42:25;;;;;;;15.57;4.45;;;;;;;18.18;100.00;101338.69;5269654;28;20027;-71
2023/08/15 02:44:56;;;;;;;18.40;4.03;;;;;;;18.19;100.00;101335.75;5287782;28;20023;-70
2023/08/15 02:47:29;;;;;;;19.23;4.38;;;;;;;18.19;100.00;101329.47;5274522;28;20023;-70
2023/08/15 02:50:00;;;;;;;15.68;4.10;;;;;;;18.19;100.00;101332.19;5269486;28;20015;-71
2023/08/15 02:52:31;;;;;;;18.40;4.20;;;;;;;18.19;100.00;101334.91;5287814;28;20027;-70
2023/08/15 02:55:01;;;;;;;16.95;3.83;;;;;;;18.15;100.00;101329.03;5283583;28;20035;-71
2023/08/15 02:57:32;;;;;;;12.95;4.13;;;;;;;18.15;100.00;101331.75;5265488;28;20028;-71
2023/08/15 03:00:04;;;;;;;16.50;4.53;;;;;;;18.13;100.00;101327.59;5249186;28;20444;-72
2023/08/15 03:02:34;;;;;;;17.13;4.72;;;;;;;18.13;100.00;101325.72;5267030;28;20038;-70
2023/08/15 03:05:05;;;;;;;15.88;4.22;;;;;;;18.14;100.00;101329.25;5280705;28;20083;-70
2023/08/15 03:07:36;;;;;;;16.27;4.05;;;;;;;18.12;100.00;101324.00;5269496;28;20015;-70
2023/08/15 03:10:07;;;;;;;15.95;4.32;;;;;;;18.18;100.00;101312.34;5286223;28;20023;-70
2023/08/15 03:12:38;;;;;;;12.45;3.17;;;;;;;18.20;100.00;101314.84;5272449;28;20492;-71
2023/08/15 03:15:08;;;;;;;11.15;3.90;;;;;;;18.24;100.00;101318.84;5281019;28;20020;-71
2023/08/15 03:17:39;;;;;;;13.18;4.25;;;;;;;18.22;100.00;101315.47;5271925;28;20032;-70
2023/08/15 03:20:10;;;;;;;18.23;4.05;;;;;;;18.21;100.00;101308.38;5276206;28;20393;-70
2023/08/15 03:22:42;;;;;;;12.05;3.75;;;;;;;18.17;100.00;101315.25;5282258;28;20024;-71
2023/08/15 03:25:13;;;;;;;16.50;3.95;;;;;;;18.10;100.00;101326.09;5286142;28;20121;-71
2023/08/15 03:27:44;;;;;;;14.85;4.63;;;;;;;18.00;100.00;101337.34;5287002;28;20505;-71
2023/08/15 03:30:14;;;;;;;12.73;3.63;;;;;;;17.92;100.00;101339.41;5288193;28;20011;-71
2023/08/15 03:32:45;;;;;;;17.02;4.45;;;;;;;17.84;100.00;101348.56;5279518;28;20059;-71
2023/08/15 03:35:15;;;;;;;13.90;4.35;;;;;;;17.77;100.00;101342.25;5279047;28;20024;-71
2023/08/15 03:37:46;;;;;;;14.02;4.10;;;;;;;17.67;100.00;101347.19;5259907;28;20075;-71
2023/08/15 03:40:16;;;;;;;11.85;4.15;;;;;;;17.56;100.00;101345.88;5264941;28;20020;-71
2023/08/15 03:42:47;;;;;;;16.25;4.32;;;;;;;17.52;100.00;101356.31;5264952;28;20028;-71
2023/08/15 03:45:18;;;;;;;19.05;5.18;;;;;;;17.48;100.00;101357.75;5266914;28;20061;-71
2023/08/15 03:47:48;;;;;;;15.38;4.80;;;;;;;17.45;100.00;101366.25;5276650;28;20381;-70
2023/08/15 03:50:19;;;;;;;14.27;4.15;;;;;;;17.43;100.00;101357.50;5272676;28;20024;-71
2023/08/15 03:52:49;;;;;;;19.85;5.70;;;;;;;17.42;100.00;101355.81;5285916;28;20050;-71
2023/08/15 03:55:20;;;;;;;17.75;4.50;;;;;;;17.38;100.00;101351.84;5272780;28;20519;-71
2023/08/15 03:57:50;;;;;;;11.10;4.15;;;;;;;17.39;100.00;101353.50;5286554;28;20024;-70
2023/08/15 04:00:21;;;;;;;13.70;4.63;;;;;;;17.43;100.00;101349.34;5285724;28;20058;-71
2023/08/15 04:02:52;;;;;;;12.23;4.45;;;;;;;17.44;100.00;101348.31;5290874;28;20149;-71
2023/08/15 04:05:24;;;;;;;13.43;3.95;;;;;;;17.40;100.00;101351.63;5292612;28;20027;-70
2023/08/15 04:07:54;;;;;;;16.45;4.82;;;;;;;17.35;100.00;101357.63;5283995;28;20081;-69
2023/08/15 04:10:25;;;;;;;15.05;4.45;;;;;;;17.29;100.00;101356.56;5292754;28;20016;-71
2023/08/15 04:12:56;;;;;;;9.88;3.67;;;;;;;17.28;100.00;101354.88;5279481;28;20083;-69
2023/08/15 04:15:26;;;;;;;12.63;4.45;;;;;;;17.26;100.00;101361.53;5292211;28;20395;-71
2023/08/15 04:17:57;;;;;;;10.13;3.90;;;;;;;17.20;100.00;101351.47;5274282;28;20081;-70
2023/08/15 04:20:27;;;;;;;21.30;4.53;;;;;;;17.13;100.00;101359.59;5301874;28;20323;-70
2023/08/15 04:22:58;;;;;;;9.63;3.45;;;;;;;17.03;100.00;101359.91;5287866;28;20027;-70
2023/08/15 04:25:29;;;;;;;12.73;4.47;;;;;;;16.95;100.00;101360.03;5296354;28;20381;-70
2023/08/15 04:27:59;;;;;;;19.80;4.57;;;;;;;16.92;100.00;101356.88;5291141;28;20079;-70
2023/08/15 04:30:31;;;;;;;12.10;3.92;;;;;;;16.95;100.00;101365.47;5287293;28;20024;-70
2023/08/15 04:33:02;;;;;;;14.20;5.00;;;;;;;16.98;100.00;101369.69;5259187;28;20488;-71
2023/08/15 04:35:32;;;;;;;11.70;4.07;;;;;;;16.94;100.00;101365.66;5277475;28;20074;-71
2023/08/15 04:38:03;;;;;;;9.73;4.28;;;;;;;16.89;100.00;101366.25;5282778;28;20020;-71
2023/08/15 04:40:39;;;;;;;16.48;3.85;;;;;;;16.82;100.00;101370.78;5278800;28;20038;-70
2023/08/15 04:43:10;;;;;;;14.43;3.97;;;;;;;16.73;100.00;101377.38;5279576;28;20024;-70
2023/08/15 04:45:43;;;;;;;14.65;4.03;;;;;;;16.68;100.00;101374.38;5276843;28;20438;-70
2023/08/15 04:48:14;;;;;;;13.73;4.20;;;;;;;16.62;100.00;101383.25;5291873;28;20023;-70
2023/08/15 04:50:44;;;;;;;18.25;4.85;;;;;;;16.56;100.00;101388.41;5286613;28;20027;-71
2023/08/15 04:53:15;;;;;;;8.07;2.47;;;;;;;16.50;100.00;101402.72;5285041;28;20027;-70
2023/08/15 04:55:45;;;;;;;17.45;3.85;;;;;;;16.41;100.00;101409.28;5289924;28;20111;-70
2023/08/15 04:58:16;;;;;;;15.25;4.35;;;;;;;16.35;100.00;101418.16;5273123;28;20130;-70
2023/08/15 05:00:47;;;;;;;15.20;4.88;;;;;;;16.33;100.00;101414.81;5268432;28;20020;-71
2023/08/15 05:03:18;;;;;;;15.88;4.13;;;;;;;16.36;100.00;101419.00;5267996;28;20363;-71
2023/08/15 05:05:48;;;;;;;14.15;4.43;;;;;;;16.36;100.00;101417.13;5280223;28;20027;-70
2023/08/15 05:08:19;;;;;;;18.08;5.82;;;;;;;16.44;100.00;101429.75;5288262;28;20015;-70
2023/08/15 05:10:49;;;;;;;16.95;5.63;;;;;;;16.51;100.00;101425.22;5285689;28;20015;-71
2023/08/15 05:13:20;;;;;;;19.65;5.18;;;;;;;16.60;100.00;101432.19;5289247;28;20492;-71
2023/08/15 05:15:51;;;;;;;14.43;5.00;;;;;;;16.70;100.00;101429.19;5282288;28;20057;-71
2023/08/15 05:18:21;;;;;;;21.88;6.13;;;;;;;16.83;100.00;101424.78;5276352;28;20032;-71
2023/08/15 05:20:52;;;;;;;18.40;5.43;;;;;;;17.00;100.00;101419.94;5288239;28;20023;-72
2023/08/15 05:23:22;;;;;;;21.25;5.78;;;;;;;17.14;100.00;101420.88;5280469;28;20095;-70
2023/08/15 05:25:53;;;;;;;17.65;5.40;;;;;;;17.28;100.00;101422.69;5284513;28;20027;-70
2023/08/15 05:28:23;;;;;;;18.25;5.55;;;;;;;17.38;100.00;101427.78;5289561;28;20020;-71
2023/08/15 05:30:54;;;;;;;21.98;5.68;;;;;;;17.50;100.00;101423.47;5284501;28;20046;-71
2023/08/15 05:33:24;;;;;;;21.60;6.10;;;;;;;17.60;100.00;101428.53;5267615;28;20028;-71
2023/08/15 05:35:55;;;;;;;18.13;5.65;;;;;;;17.71;100.00;101424.44;5280588;28;20118;-71
2023/08/15 05:38:25;;;;;;;13.73;5.25;;;;;;;17.84;100.00;101441.69;5280249;28;20119;-71
2023/08/15 05:40:56;;;;;;;22.83;5.45;;;;;;;17.92;100.00;101437.09;5272822;28;20027;-71
2023/08/15 05:43:26;;;;;;;15.95;5.35;;;;;;;18.00;100.00;101436.97;5278926;28;20031;-71
2023/08/15 05:45:57;;;;;;;14.93;4.90;;;;;;;18.11;100.00;101439.09;5273351;28;20484;-71
2023/08/15 05:48:29;;;;;;;16.92;4.45;;;;;;;18.26;100.00;101438.97;5285877;28;20068;-71
2023/08/15 05:51:00;;;;;;;18.60;5.05;;;;;;;18.36;100.00;101445.69;5286282;28;20114;-71
2023/08/15 05:53:31;;;;;;;18.90;5.18;;;;;;;18.46;100.00;101449.91;5271664;28;20430;-71
2023/08/15 05:56:01;;;;;;;12.98;4.22;;;;;;;18.57;100.00;101457.44;5274774;28;20020;-71
2023/08/15 05:58:32;;;;;;;11.65;4.53;;;;;;;18.76;100.00;101450.44;5264424;28;20390;-71
2023/08/15 06:01:02;;;;;;;11.70;3.95;;;;;;;19.29;100.00;101459.50;5277443;28;20373;-71
2023/08/15 06:03:33;;;;;;;17.17;3.85;;;;;;;19.80;100.00;101453.44;5261107;28;20420;-70
2023/08/15 06:06:03;;;;;;;16.60;4.25;;;;;;;20.55;100.00;101458.44;5278560;28;20023;-72
2023/08/15 06:08:34;;;;;;;15.32;3.15;;;;;;;21.07;100.00;101457.28;5285680;28;20026;-71
2023/08/15 06:11:05;;;;;;;9.82;3.25;;;;;;;21.42;100.00;101452.19;5270151;28;20296;-71
2023/08/15 06:13:36;;;;;;;13.68;3.35;;;;;;;21.68;100.00;101447.53;5274137;28;20392;-71
2023/08/15 06:16:06;;;;;;;11.35;3.35;;;;;;;22.02;100.00;101446.13;5285091;28;20020;-71
2023/08/15 06:18:37;;;;;;;8.70;3.15;;;;;;;22.27;100.00;101451.53;5275239;28;20039;-72
2023/08/15 06:21:07;;;;;;;7.03;2.78;;;;;;;22.54;100.00;101445.72;5268823;28;20023;-72
2023/08/15 06:23:38;;;;;;;9.98;2.60;;;;;;;22.64;100.00;101443.28;5284707;28;20034;-72
2023/08/15 06:26:08;;;;;;;8.95;2.72;;;;;;;23.00;100.00;101439.63;5265991;28;20470;-72
2023/08/15 06:28:39;;;;;;;11.25;2.38;;;;;;;23.34;100.00;101445.38;5264491;28;20028;-72
2023/08/15 06:31:09;;;;;;;12.25;3.17;;;;;;;23.56;100.00;101446.47;5253099;28;20023;-71
2023/08/15 06:33:40;;;;;;;10.93;3.05;;;;;;;23.33;100.00;101447.28;5266843;28;20239;-71
2023/08/15 06:36:10;;;;;;;8.20;2.83;;;;;;;23.63;100.00;101446.34;5284826;28;20019;-72
2023/08/15 06:38:41;;;;;;;13.35;2.78;;;;;;;23.59;100.00;101446.00;5285297;28;20055;-72
2023/08/15 06:41:12;;;;;;;7.25;2.85;;;;;;;24.04;100.00;101442.66;5284889;28;20155;-72
2023/08/15 06:43:44;;;;;;;8.40;2.38;;;;;;;24.38;100.00;101440.09;5271092;28;20024;-72
2023/08/15 06:46:14;;;;;;;8.07;2.50;;;;;;;24.50;100.00;101435.41;5284727;28;20024;-72
2023/08/15 06:48:45;;;;;;;11.00;2.70;;;;;;;24.38;100.00;101440.09;5266782;28;20043;-71
2023/08/15 06:51:16;;;;;;;10.88;2.92;;;;;;;23.95;100.00;101439.47;5246974;28;20023;-72
2023/08/15 06:53:49;;;;;;;8.15;2.10;;;;;;;23.72;100.00;101453.19;5264808;28;20016;-72
2023/08/15 06:56:20;;;;;;;7.10;2.25;;;;;;;23.70;100.00;101452.59;5265244;28;20063;-72
2023/08/15 06:58:50;;;;;;;8.50;2.63;;;;;;;23.95;100.00;101450.44;5265304;28;20480;-72
2023/08/15 07:01:21;;;;;;;10.00;2.22;;;;;;;23.83;100.00;101456.97;5265712;28;20057;-72
2023/08/15 07:03:52;;;;;;;7.45;2.35;;;;;;;23.64;100.00;101465.31;5265955;28;20020;-72
2023/08/15 07:06:22;;;;;;;8.35;1.83;;;;;;;23.93;100.00;101469.00;5265799;28;20031;-72
2023/08/15 07:08:53;;;;;;;10.20;2.22;;;;;;;24.38;100.00;101451.88;5276146;28;20025;-71
2023/08/15 07:11:23;;;;;;;11.35;2.67;;;;;;;24.43;100.00;101456.66;5280424;28;20397;-72
2023/08/15 07:13:54;;;;;;;10.07;2.00;;;;;;;24.23;100.00;101451.53;5285926;28;20023;-72
2023/08/15 07:16:24;;;;;;;7.88;2.92;;;;;;;24.20;100.00;101455.63;5284951;28;20028;-72
2023/08/15 07:18:55;;;;;;;7.95;2.30;;;;;;;23.96;100.00;101457.56;5286263;28;20516;-72
2023/08/15 07:21:25;;;;;;;11.95;2.13;;;;;;;23.96;100.00;101465.78;5285851;28;20023;-72
2023/08/15 07:23:56;;;;;;;4.90;1.92;;;;;;;24.15;100.00;101463.75;5269542;28;20100;-72
2023/08/15 07:26:26;;;;;;;7.80;2.13;;;;;;;24.83;100.00;101470.31;5273069;28;20434;-72
2023/08/15 07:28:57;;;;;;;9.13;2.33;;;;;;;25.33;100.00;101477.00;5253717;28;20031;-72
2023/08/15 07:31:28;;;;;;;8.82;2.20;;;;;;;25.92;100.00;101474.63;5276016;28;20047;-72
2023/08/15 07:33:58;;;;;;;10.98;2.60;;;;;;;25.86;100.00;101479.22;5268571;28;20023;-72
2023/08/15 07:36:29;;;;;;;10.32;2.50;;;;;;;25.75;100.00;101482.91;5284282;28;20465;-72
2023/08/15 07:38:59;;;;;;;6.07;1.90;;;;;;;25.76;100.00;101477.16;5280627;28;20039;-72
2023/08/15 07:41:30;;;;;;;6.75;2.10;;;;;;;25.75;100.00;101482.91;5277212;28;20028;-72
2023/08/15 07:44:00;;;;;;;9.30;2.38;;;;;;;25.53;100.00;101500.13;5265466;28;20439;-73
2023/08/15 07:46:31;;;;;;;6.00;1.70;;;;;;;25.28;100.00;101505.19;5277595;28;20024;-72
2023/08/15 07:49:01;;;;;;;7.75;2.08;;;;;;;25.20;100.00;101500.09;5271471;28;20091;-72
2023/08/15 07:51:32;;;;;;;10.98;2.35;;;;;;;25.46;100.00;101504.13;5285563;28;20384;-72
2023/08/15 07:54:03;;;;;;;7.95;2.42;;;;;;;25.33;100.00;101510.78;5286116;28;20035;-73
2023/08/15 07:56:33;;;;;;;10.30;2.33;;;;;;;24.93;100.00;101514.41;5285041;28;20130;-72
2023/08/15 07:59:04;;;;;;;9.57;2.35;;;;;;;25.06;100.00;101513.28;5274996;28;20096;-72
2023/08/15 08:01:34;;;;;;;8.57;2.15;;;;;;;25.30;100.00;101516.75;5277754;28;20047;-73
2023/08/15 08:04:05;;;;;;;9.52;2.50;;;;;;;25.19;100.00;101515.75;5264654;28;20429;-73
2023/08/15 08:06:36;;;;;;;4.90;1.63;;;;;;;25.28;100.00;101513.44;5263959;28;20076;-72
2023/08/15 08:09:08;;;;;;;8.45;2.22;;;;;;;25.82;100.00;101511.06;5280496;28;20236;-72
2023/08/15 08:11:38;;;;;;;4.45;2.10;;;;;;;26.25;100.00;101517.69;5278017;28;20466;-73
2023/08/15 08:14:09;;;;;;;8.23;2.35;;;;;;;26.27;100.00;101515.53;5277938;28;20023;-73
2023/08/15 08:16:39;;;;;;;6.50;2.08;;;;;;;26.60;100.00;101509.91;5279801;28;20030;-73
2023/08/15 08:19:10;;;;;;;8.27;1.98;;;;;;;27.02;100.00;101512.03;5285114;28;20054;-73
2023/08/15 08:21:40;;;;;;;8.90;2.08;;;;;;;27.55;100.00;101515.84;5276338;28;20257;-73
2023/08/15 08:24:11;;;;;;;6.28;2.30;;;;;;;27.88;100.00;101524.94;5265918;28;20036;-73
2023/08/15 08:26:42;;;;;;;8.13;2.20;;;;;;;28.25;100.00;101518.53;5284949;28;20028;-73
2023/08/15 08:29:13;;;;;;;7.00;2.00;;;;;;;28.29;100.00;101514.97;5267856;28;20024;-72
2023/08/15 08:31:43;;;;;;;7.75;1.92;;;;;;;28.45;100.00;101520.59;5264554;28;20016;-73
2023/08/15 08:34:14;;;;;;;8.68;2.00;;;;;;;28.33;100.00;101507.84;5268553;28;20020;-73
2023/08/15 08:36:45;;;;;;;9.90;2.20;;;;;;;28.90;100.00;101509.69;5272030;28;20493;-73
2023/08/15 08:39:16;;;;;;;6.95;1.85;;;;;;;29.47;100.00;101518.06;5277804;28;20063;-73
2023/08/15 08:41:47;;;;;;;9.52;2.38;;;;;;;29.28;100.00;101518.63;5263756;28;20456;-73
2023/08/15 08:44:18;;;;;;;5.20;1.80;;;;;;;29.08;100.00;101524.94;5271055;28;20023;-74
2023/08/15 08:46:49;;;;;;;6.93;2.08;;;;;;;28.45;100.00;101524.16;5270401;28;20017;-73
2023/08/15 08:49:21;;;;;;;5.30;2.13;;;;;;;27.54;100.00;101525.22;5287699;28;20239;-73
2023/08/15 08:51:52;;;;;;;8.30;1.83;;;;;;;27.26;100.00;101517.25;5272015;28;20039;-74
2023/08/15 08:54:23;;;;;;;6.40;1.75;;;;;;;27.24;100.00;101523.03;5267898;28;20024;-73
2023/08/15 08:56:55;;;;;;;7.68;1.77;;;;;;;27.35;100.00;101521.19;5271262;28;20373;-73
2023/08/15 08:59:28;;;;;;;13.70;2.25;;;;;;;27.20;100.00;101537.56;5276414;28;20103;-73
2023/08/15 09:01:58;;;;;;;7.57;1.95;;;;;;;27.61;100.00;101525.84;5266881;28;20563;-74
2023/08/15 09:04:29;;;;;;;7.30;2.22;;;;;;;28.00;100.00;101525.56;5281113;28;20035;-71
2023/08/15 09:07:00;;;;;;;7.40;2.00;;;;;;;28.65;100.00;101526.19;5267571;28;20481;-72
2023/08/15 09:09:30;;;;;;;7.07;2.15;;;;;;;28.93;100.00;101524.91;5287094;28;20602;-72
2023/08/15 09:12:01;;;;;;;4.43;1.70;;;;;;;28.96;100.00;101523.53;5288472;28;20047;-71
2023/08/15 09:14:31;;;;;;;6.45;2.05;;;;;;;28.89;100.00;101526.53;5285564;28;20051;-71
2023/08/15 09:17:02;;;;;;;9.55;1.80;;;;;;;28.98;100.00;101535.97;5277525;28;20065;-71
2023/08/15 09:19:39;;;;;;;7.18;1.95;;;;;;;29.10;100.00;101535.72;5275642;28;20070;-71
2023/08/15 09:22:20;;;;;;;6.60;1.92;;;;;;;28.82;100.00;101525.97;5276772;28;20028;-71
2023/08/15 09:24:51;;;;;;;6.07;1.98;;;;;;;28.46;100.00;101542.38;5267077;28;20028;-71
2023/08/15 09:27:21;;;;;;;6.68;2.00;;;;;;;28.49;100.00;101536.34;5279499;28;20016;-71
2023/08/15 09:29:52;;;;;;;9.60;2.45;;;;;;;28.64;100.00;101533.63;5266937;28;20066;-71
2023/08/15 09:32:22;;;;;;;4.25;1.63;;;;;;;28.10;100.00;101539.41;5280232;28;20111;-72
2023/08/15 09:34:53;;;;;;;5.45;1.90;;;;;;;27.48;100.00;101531.78;5267717;28;20020;-73
2023/08/15 09:37:24;;;;;;;5.45;1.70;;;;;;;27.90;100.00;101532.94;5270891;28;20035;-72
2023/08/15 09:39:55;;;;;;;10.25;1.85;;;;;;;28.35;100.00;101529.66;5277284;28;20489;-72
2023/08/15 09:42:27;;;;;;;6.68;1.70;;;;;;;28.90;100.00;101531.78;5286022;28;20020;-72
2023/08/15 09:44:58;;;;;;;5.60;1.75;;;;;;;29.03;100.00;101536.00;5275124;28;20473;-72
2023/08/15 09:47:29;;;;;;;7.93;1.90;;;;;;;29.31;100.00;101529.09;5272874;28;20035;-72
2023/08/15 09:50:00;;;;;;;6.30;1.88;;;;;;;29.89;100.00;101542.66;5288266;28;20034;-72
2023/08/15 09:52:30;;;;;;;8.15;2.33;;;;;;;29.60;100.00;101534.13;5288031;28;20076;-72
2023/08/15 09:55:02;;;;;;;6.28;1.75;;;;;;;29.72;100.00;101542.13;5271889;28;20385;-71
2023/08/15 09:57:32;;;;;;;7.95;2.33;;;;;;;29.51;100.00;101536.56;5276062;28;20111;-71
2023/08/15 10:00:04;;;;;;;5.15;2.05;;;;;;;28.82;100.00;101546.13;5269660;28;20213;-71
2023/08/15 10:02:43;;;;;;;8.68;2.08;;;;;;;28.19;100.00;101545.25;5266754;28;20031;-71
2023/08/15 10:05:20;;;;;;;10.85;1.98;;;;;;;27.74;100.00;101552.13;5267594;28;20020;-72
2023/08/15 10:07:51;;;;;;;6.72;2.10;;;;;;;27.69;100.00;101548.47;5271490;28;20077;-73
2023/08/15 10:10:22;;;;;;;10.18;2.10;;;;;;;27.84;100.00;101551.38;5278047;28;20023;-73
2023/08/15 10:12:54;;;;;;;6.72;1.75;;;;;;;27.87;100.00;101546.19;5286803;27;20023;-73
2023/08/15 10:15:26;;;;;;;7.57;1.95;;;;;;;27.80;100.00;101555.75;5280276;27;20464;-73
2023/08/15 10:17:58;;;;;;;8.73;2.40;;;;;;;27.57;100.00;101549.50;5288807;27;20028;-74
2023/08/15 10:20:35;;;;;;;6.85;1.75;;;;;;;27.75;100.00;101551.03;5282790;27;20028;-73
2023/08/15 10:23:09;;;;;;;7.40;2.05;;;;;;;27.46;100.00;101552.41;5291398;27;20026;-73
2023/08/15 10:25:40;;;;;;;7.10;1.98;;;;;;;27.13;100.00;101547.97;5287170;27;20114;-73
2023/08/15 10:28:12;;;;;;;10.63;2.05;;;;;;;26.67;100.00;101558.44;5273657;28;20090;-73
2023/08/15 10:33:32;;;;;;;5.32;2.00;;;;;;;26.39;100.00;101548.41;5273835;28;20116;-73
2023/08/15 10:36:03;;;;;;;6.15;1.75;;;;;;;26.66;100.00;101562.25;5285819;28;20447;-73
2023/08/15 10:38:39;;;;;;;6.95;2.75;;;;;;;26.91;100.00;101562.59;5272952;28;20111;-73
2023/08/15 10:41:14;;;;;;;8.40;2.20;;;;;;;27.56;100.00;101556.09;5286702;28;20031;-73
2023/08/15 10:43:48;;;;;;;9.65;2.83;;;;;;;28.16;100.00;101562.34;5283093;28;20035;-73
2023/08/15 10:46:26;;;;;;;6.68;2.28;;;;;;;28.24;100.00;101566.53;5275971;28;20031;-73
2023/08/15 10:49:13;;;;;;;7.97;2.08;;;;;;;28.50;100.00;101568.34;5286461;28;20161;-73
2023/08/15 10:51:43;;;;;;;7.00;2.00;;;;;;;28.36;100.00;101569.94;5286342;28;20507;-73
2023/08/15 10:54:15;;;;;;;5.10;1.88;;;;;;;28.11;100.00;101573.34;5286109;28;20031;-73
2023/08/15 10:56:46;;;;;;;6.32;2.15;;;;;;;27.93;100.00;101582.88;5285957;28;20033;-74
2023/08/15 10:59:18;;;;;;;6.07;2.08;;;;;;;27.63;100.00;101577.94;5286116;28;20465;-73
2023/08/15 11:01:48;;;;;;;4.47;1.95;;;;;;;27.38;100.00;101577.69;5286406;28;20034;-73
2023/08/15 11:04:19;;;;;;;6.28;2.25;;;;;;;27.19;100.00;101571.72;5274236;28;20482;-73
2023/08/15 11:06:52;;;;;;;6.00;1.88;;;;;;;27.09;100.00;101576.03;5266115;28;20441;-73
2023/08/15 11:09:42;;;;;;;6.40;1.90;;;;;;;27.24;100.00;101572.59;5268725;28;20089;-73
2023/08/15 11:12:13;;;;;;;8.27;2.67;;;;;;;27.83;100.00;101577.28;5273796;28;20024;-73
2023/08/15 11:14:50;;;;;;;4.68;2.15;;;;;;;28.20;100.00;101574.50;5270302;28;20031;-73
2023/08/15 11:17:20;;;;;;;7.28;1.80;;;;;;;28.32;100.00;101579.84;5285114;28;20020;-74
2023/08/15 11:19:51;;;;;;;11.73;2.05;;;;;;;28.54;100.00;101572.25;5285945;28;20031;-73
2023/08/15 11:22:21;;;;;;;8.00;1.83;;;;;;;28.84;100.00;101578.97;5272496;28;20481;-73
2023/08/15 11:24:52;;;;;;;9.38;1.95;;;;;;;28.63;100.00;101581.66;5276892;28;20115;-73
2023/08/15 11:27:23;;;;;;;4.75;1.77;;;;;;;28.26;100.00;101586.41;5281024;28;20396;-73
2023/08/15 11:29:56;;;;;;;6.53;1.90;;;;;;;27.87;100.00;101584.78;5275840;28;20077;-73
2023/08/15 11:32:27;;;;;;;7.65;1.92;;;;;;;27.34;100.00;101586.47;5283214;28;20039;-73